Time;durP1;ratioP1;P1;durP2;ratioP2;P2;SDS_P1;SDS_P2;PMS_P1;PMS_P2;Temp;Humidity;BMP_temperature;BMP_pressure;BME280_temperature;BME280_humidity;BME280_pressure;Samples;Min_cycle;Max_cycle;Signal;HPM_P1;HPM_P2
2022/05/10 00:00:17;;;;;;;13.43;11.20;;;16.00;99.90;;;;;;5001307;28;20418;-88
2022/05/10 00:02:49;;;;;;;12.23;10.90;;;15.90;99.90;;;;;;5004073;28;20455;-88
2022/05/10 00:05:17;;;;;;;11.97;10.77;;;16.00;99.90;;;;;;5004221;28;20920;-88
2022/05/10 00:07:44;;;;;;;18.37;11.30;;;16.00;99.90;;;;;;5001735;28;20483;-88
2022/05/10 00:10:12;;;;;;;15.13;11.63;;;15.80;99.90;;;;;;5004978;28;20493;-88
2022/05/10 00:12:39;;;;;;;13.73;12.17;;;15.70;99.90;;;;;;5000421;28;20515;-89
2022/05/10 00:15:08;;;;;;;13.83;12.07;;;15.70;99.90;;;;;;4998775;28;20461;-88
2022/05/10 00:17:37;;;;;;;15.00;11.73;;;15.80;99.90;;;;;;4999385;28;20869;-88
2022/05/10 00:20:10;;;;;;;13.43;12.13;;;15.80;99.90;;;;;;5000061;28;20454;-88
2022/05/10 00:22:38;;;;;;;13.67;11.90;;;15.70;99.90;;;;;;5002990;28;20495;-88
2022/05/10 00:25:07;;;;;;;12.93;11.53;;;15.60;99.90;;;;;;5003743;28;20473;-89
2022/05/10 00:27:34;;;;;;;13.80;12.40;;;15.40;99.90;;;;;;5004036;28;20507;-89
2022/05/10 00:30:01;;;;;;;13.17;11.80;;;15.30;99.90;;;;;;5005290;28;20455;-89
2022/05/10 00:32:32;;;;;;;13.97;12.47;;;15.40;99.90;;;;;;5006817;28;20446;-88
2022/05/10 00:34:59;;;;;;;13.53;12.07;;;15.30;99.90;;;;;;5019047;28;20424;-87
2022/05/10 00:37:28;;;;;;;12.67;11.40;;;15.40;99.90;;;;;;5008051;28;20429;-88
2022/05/10 00:39:55;;;;;;;13.00;11.70;;;15.40;99.90;;;;;;5000258;28;20463;-88
2022/05/10 00:42:29;;;;;;;17.20;12.47;;;15.40;99.90;;;;;;5001496;28;20881;-88
2022/05/10 00:45:01;;;;;;;14.37;11.70;;;15.30;99.90;;;;;;5006062;28;20424;-88
2022/05/10 00:47:35;;;;;;;13.80;12.40;;;15.30;99.90;;;;;;5005640;28;21072;-89
2022/05/10 00:50:07;;;;;;;13.30;11.90;;;15.20;99.90;;;;;;5005527;28;20424;-88
2022/05/10 00:52:43;;;;;;;13.70;12.13;;;15.10;99.90;;;;;;5004981;28;20516;-88
2022/05/10 00:55:17;;;;;;;16.50;12.33;;;15.10;99.90;;;;;;5004550;28;20526;-88
2022/05/10 00:57:49;;;;;;;13.63;12.20;;;15.10;99.90;;;;;;5005103;28;20463;-88
2022/05/10 01:00:18;;;;;;;13.70;12.40;;;15.00;99.90;;;;;;5011390;28;20478;-88
2022/05/10 01:02:58;;;;;;;13.20;11.90;;;15.00;99.90;;;;;;5001395;28;20438;-88
2022/05/10 01:05:31;;;;;;;15.03;12.80;;;15.00;99.90;;;;;;4998867;28;20432;-88
2022/05/10 01:08:07;;;;;;;13.67;12.37;;;15.00;99.90;;;;;;4998540;28;20450;-87
2022/05/10 01:10:44;;;;;;;15.27;13.80;;;14.90;99.90;;;;;;4996780;28;20450;-88
2022/05/10 01:13:22;;;;;;;14.27;12.77;;;14.90;99.90;;;;;;4999386;28;20573;-88
2022/05/10 01:15:57;;;;;;;13.67;12.27;;;14.80;99.90;;;;;;5007034;28;20425;-87
2022/05/10 01:18:24;;;;;;;15.00;13.40;;;14.80;99.90;;;;;;5000824;28;20402;-88
2022/05/10 01:20:57;;;;;;;12.60;11.37;;;14.70;99.90;;;;;;5001309;28;20441;-88
2022/05/10 01:23:58;;;;;;;12.40;11.20;;;14.70;99.90;;;;;;5015112;28;20438;-88
2022/05/10 01:26:33;;;;;;;14.17;12.77;;;14.80;99.90;;;;;;5001823;28;20461;-88
2022/05/10 01:29:07;;;;;;;16.67;12.83;;;14.70;99.90;;;;;;5002527;28;20424;-88
2022/05/10 01:31:38;;;;;;;13.97;12.00;;;14.70;99.90;;;;;;5001656;28;20506;-88
2022/05/10 01:34:08;;;;;;;15.03;12.50;;;14.70;99.90;;;;;;5001805;28;20426;-88
2022/05/10 01:36:42;;;;;;;14.33;12.67;;;14.70;99.90;;;;;;5003101;28;20414;-87
2022/05/10 01:39:17;;;;;;;14.03;12.53;;;14.70;99.90;;;;;;5002457;28;20443;-87
2022/05/10 01:41:51;;;;;;;12.90;11.67;;;14.70;99.90;;;;;;5002017;28;20468;-87
2022/05/10 01:44:26;;;;;;;15.20;13.57;;;14.70;99.90;;;;;;5002663;28;20402;-87
2022/05/10 01:47:02;;;;;;;12.10;10.90;;;14.70;99.90;;;;;;5000837;28;20506;-88
2022/05/10 01:49:36;;;;;;;15.97;12.20;;;14.70;99.90;;;;;;5001554;28;20506;-87
2022/05/10 01:52:10;;;;;;;12.80;11.53;;;14.70;99.90;;;;;;5009121;28;20451;-87
2022/05/10 01:55:01;;;;;;;15.30;12.43;;;14.80;99.90;;;;;;5012700;28;20442;-87
2022/05/10 01:57:30;;;;;;;14.30;11.90;;;14.70;99.90;;;;;;5002359;28;20482;-87
2022/05/10 02:00:06;;;;;;;14.20;12.70;;;14.60;99.90;;;;;;5002005;28;20455;-87
2022/05/10 02:02:38;;;;;;;14.13;12.73;;;14.60;99.90;;;;;;5001365;28;20485;-88
2022/05/10 02:05:10;;;;;;;14.00;12.60;;;14.60;99.90;;;;;;5000612;28;20449;-88
2022/05/10 02:07:39;;;;;;;15.07;12.33;;;14.50;99.90;;;;;;5002086;28;20473;-88
2022/05/10 02:10:13;;;;;;;13.93;12.53;;;14.50;99.90;;;;;;5001132;28;20558;-88
2022/05/10 02:12:43;;;;;;;14.90;13.40;;;14.40;99.90;;;;;;5004590;28;20485;-87
2022/05/10 02:15:19;;;;;;;13.90;12.50;;;14.40;99.90;;;;;;5003287;28;20758;-89
2022/05/10 02:17:50;;;;;;;17.10;12.63;;;14.40;99.90;;;;;;5003237;28;20425;-88
2022/05/10 02:20:22;;;;;;;13.53;11.93;;;14.40;99.90;;;;;;5003504;28;20422;-87
2022/05/10 02:22:54;;;;;;;13.10;11.70;;;14.40;99.90;;;;;;5006561;28;20469;-88
2022/05/10 02:25:28;;;;;;;15.63;11.40;;;14.30;99.90;;;;;;5008692;28;20438;-88
2022/05/10 02:27:59;;;;;;;15.40;12.63;;;14.30;99.90;;;;;;5004337;28;21058;-88
2022/05/10 02:30:32;;;;;;;14.73;13.20;;;14.50;99.90;;;;;;5006051;28;20399;-87
2022/05/10 02:33:06;;;;;;;13.73;12.33;;;14.40;99.90;;;;;;5020575;28;20469;-84
2022/05/10 02:35:35;;;;;;;15.00;12.77;;;14.40;99.90;;;;;;5015213;28;20442;-88
2022/05/10 02:38:03;;;;;;;14.00;12.60;;;14.40;99.90;;;;;;5017679;28;20428;-87
2022/05/10 02:40:30;;;;;;;14.87;12.70;;;14.40;99.90;;;;;;5017632;28;20433;-87
2022/05/10 02:43:00;;;;;;;13.03;11.73;;;14.40;99.90;;;;;;5010230;28;20460;-89
2022/05/10 02:45:28;;;;;;;15.57;13.87;;;14.40;99.90;;;;;;5010444;28;20450;-87
2022/05/10 02:47:55;;;;;;;16.40;12.67;;;14.30;99.90;;;;;;5004551;28;20523;-87
2022/05/10 02:50:24;;;;;;;14.67;13.20;;;14.20;99.90;;;;;;5004057;28;20454;-89
2022/05/10 02:52:52;;;;;;;14.13;12.67;;;14.30;99.90;;;;;;5011238;28;20486;-88
2022/05/10 02:55:27;;;;;;;13.53;12.13;;;14.20;99.90;;;;;;5015411;28;20413;-87
2022/05/10 02:57:55;;;;;;;14.03;12.03;;;14.30;99.90;;;;;;5019253;28;20438;-87
2022/05/10 03:00:24;;;;;;;13.90;11.90;;;14.30;99.90;;;;;;5017952;28;20770;-87
2022/05/10 03:02:57;;;;;;;13.97;12.47;;;14.30;99.90;;;;;;5014629;28;20450;-87
2022/05/10 03:05:24;;;;;;;14.73;12.30;;;14.30;99.90;;;;;;5007292;28;20513;-88
2022/05/10 03:07:53;;;;;;;16.50;12.63;;;14.20;99.90;;;;;;5006011;28;20487;-87
2022/05/10 03:10:20;;;;;;;19.60;13.53;;;14.20;99.90;;;;;;5006184;28;20537;-88
2022/05/10 03:12:47;;;;;;;13.50;12.10;;;14.20;99.90;;;;;;5053266;22;20467;-86
2022/05/10 03:15:14;;;;;;;13.80;12.30;;;14.10;99.90;;;;;;5034132;28;20982;-85
2022/05/10 03:17:41;;;;;;;14.10;12.10;;;14.10;99.90;;;;;;5028420;28;20454;-86
2022/05/10 03:20:10;;;;;;;14.63;13.10;;;14.00;99.90;;;;;;5028007;28;20450;-86
2022/05/10 03:22:37;;;;;;;15.30;13.07;;;13.90;99.90;;;;;;5028101;28;20449;-87
2022/05/10 03:25:05;;;;;;;13.83;12.43;;;13.90;99.90;;;;;;5028856;28;20454;-87
2022/05/10 03:27:34;;;;;;;14.60;11.63;;;13.80;99.90;;;;;;5031679;28;20487;-86
2022/05/10 03:30:02;;;;;;;13.30;11.90;;;13.80;99.90;;;;;;5038316;28;20401;-86
2022/05/10 03:32:30;;;;;;;13.87;12.03;;;13.90;99.90;;;;;;5038083;28;20437;-86
2022/05/10 03:34:58;;;;;;;15.97;12.57;;;13.80;99.90;;;;;;5022790;28;20443;-87
2022/05/10 03:37:28;;;;;;;14.40;12.77;;;13.80;99.90;;;;;;5036418;28;20477;-86
2022/05/10 03:39:55;;;;;;;17.13;13.70;;;13.70;99.90;;;;;;5022085;28;20455;-88
2022/05/10 03:42:23;;;;;;;14.50;13.00;;;13.70;99.90;;;;;;5019217;28;20495;-87
2022/05/10 03:44:52;;;;;;;13.90;12.50;;;13.80;99.90;;;;;;5020078;28;20512;-87
2022/05/10 03:47:20;;;;;;;15.03;13.27;;;13.80;99.90;;;;;;5018150;28;20486;-86
2022/05/10 03:49:47;;;;;;;13.43;12.07;;;13.70;99.90;;;;;;5019637;28;20601;-87
2022/05/10 03:52:15;;;;;;;15.60;13.93;;;13.70;99.90;;;;;;5026042;28;20461;-86
2022/05/10 03:54:44;;;;;;;14.90;12.87;;;13.70;99.90;;;;;;5023558;28;20500;-86
2022/05/10 03:57:11;;;;;;;15.97;12.50;;;13.70;99.90;;;;;;5022172;28;20486;-87
2022/05/10 03:59:41;;;;;;;14.20;12.80;;;13.60;99.90;;;;;;5020993;28;20512;-87
2022/05/10 04:02:10;;;;;;;12.97;11.67;;;13.60;99.90;;;;;;5017907;28;20454;-87
2022/05/10 04:04:36;;;;;;;14.60;13.10;;;13.60;99.90;;;;;;5018107;28;20431;-87
2022/05/10 04:07:04;;;;;;;14.43;12.93;;;13.60;99.90;;;;;;5034963;28;20536;-88
2022/05/10 04:09:31;;;;;;;14.53;13.03;;;13.50;99.90;;;;;;5031434;28;20455;-88
2022/05/10 04:12:00;;;;;;;16.83;13.93;;;13.50;99.90;;;;;;5018919;28;20460;-87
2022/05/10 04:14:27;;;;;;;17.00;13.77;;;13.60;99.90;;;;;;5017920;28;20520;-87
2022/05/10 04:16:54;;;;;;;14.17;12.73;;;13.70;99.90;;;;;;5019335;28;21022;-88
2022/05/10 04:19:21;;;;;;;14.60;12.90;;;13.70;99.90;;;;;;5016950;28;20429;-88
2022/05/10 04:21:49;;;;;;;14.43;13.00;;;13.70;99.90;;;;;;5017540;28;20512;-87
2022/05/10 04:24:16;;;;;;;15.00;11.87;;;13.70;99.90;;;;;;5017274;28;20475;-87
2022/05/10 04:26:43;;;;;;;15.57;13.63;;;13.80;99.90;;;;;;5032568;28;20776;-87
2022/05/10 04:29:12;;;;;;;16.70;13.43;;;13.70;99.90;;;;;;5036289;28;20492;-86
2022/05/10 04:31:38;;;;;;;13.70;12.30;;;13.70;99.90;;;;;;5037717;28;20440;-87
2022/05/10 04:34:06;;;;;;;15.33;12.50;;;13.70;99.90;;;;;;5028049;28;20788;-87
2022/05/10 04:36:33;;;;;;;13.53;12.13;;;13.90;99.90;;;;;;5017677;28;20492;-88
2022/05/10 04:39:00;;;;;;;13.37;11.97;;;13.90;99.90;;;;;;5017048;28;20429;-87
2022/05/10 04:41:28;;;;;;;13.73;12.20;;;14.00;99.90;;;;;;5017108;28;20428;-87
2022/05/10 04:43:57;;;;;;;15.13;12.77;;;14.00;99.90;;;;;;5016915;28;20425;-88
2022/05/10 04:46:27;;;;;;;16.00;12.30;;;14.00;99.90;;;;;;5021305;28;20506;-86
2022/05/10 04:48:53;;;;;;;13.67;12.10;;;14.20;99.90;;;;;;5038076;28;20469;-86
2022/05/10 04:51:21;;;;;;;16.73;13.03;;;14.30;99.90;;;;;;5038255;28;20454;-85
2022/05/10 04:53:47;;;;;;;14.57;12.70;;;14.40;99.90;;;;;;5029262;28;20990;-88
2022/05/10 04:56:15;;;;;;;13.50;12.13;;;14.40;99.90;;;;;;5018358;28;20444;-86
2022/05/10 04:58:43;;;;;;;15.53;12.70;;;14.50;99.90;;;;;;5016393;28;20916;-86
2022/05/10 05:01:12;;;;;;;15.90;14.20;;;14.40;99.90;;;;;;5016626;28;20534;-86
2022/05/10 05:03:43;;;;;;;15.60;13.10;;;14.50;99.90;;;;;;5016550;28;20541;-87
2022/05/10 05:06:10;;;;;;;14.97;12.80;;;14.70;99.90;;;;;;5016148;28;20445;-87
2022/05/10 05:08:37;;;;;;;14.77;13.03;;;14.90;99.90;;;;;;5015978;28;20557;-87
2022/05/10 05:11:05;;;;;;;13.80;12.37;;;15.10;99.90;;;;;;5029434;28;20425;-86
2022/05/10 05:13:32;;;;;;;14.33;12.83;;;15.00;99.90;;;;;;5022670;28;20492;-87
2022/05/10 05:15:59;;;;;;;16.30;12.63;;;15.20;99.90;;;;;;5016670;28;20856;-87
2022/05/10 05:18:26;;;;;;;15.27;13.23;;;15.20;99.90;;;;;;5018066;28;20533;-87
2022/05/10 05:20:54;;;;;;;17.90;13.03;;;15.30;99.90;;;;;;5016690;28;20429;-87
2022/05/10 05:23:25;;;;;;;13.97;12.40;;;15.20;99.90;;;;;;5033512;28;20437;-86
2022/05/10 05:25:55;;;;;;;14.50;13.10;;;15.30;99.90;;;;;;5037102;28;20462;-86
2022/05/10 05:28:22;;;;;;;17.07;14.70;;;15.30;99.90;;;;;;5027973;28;20456;-86
2022/05/10 05:30:50;;;;;;;15.13;12.80;;;15.40;99.90;;;;;;5019706;28;20541;-86
2022/05/10 05:33:17;;;;;;;18.70;13.23;;;15.50;99.90;;;;;;5018076;28;20484;-86
2022/05/10 05:35:44;;;;;;;14.97;13.47;;;15.60;99.90;;;;;;5018412;28;20980;-87
2022/05/10 05:38:16;;;;;;;14.23;12.73;;;15.80;99.90;;;;;;5020668;28;20425;-86
2022/05/10 05:40:43;;;;;;;16.67;13.40;;;16.00;99.90;;;;;;5017678;28;20473;-86
2022/05/10 05:43:18;;;;;;;15.40;13.73;;;16.20;99.90;;;;;;5020728;28;20537;-87
2022/05/10 05:45:45;;;;;;;15.30;12.27;;;16.30;99.90;;;;;;5020005;28;20405;-86
2022/05/10 05:48:12;;;;;;;15.13;13.53;;;16.50;99.90;;;;;;5018839;28;20460;-87
2022/05/10 05:50:39;;;;;;;14.63;12.83;;;16.60;99.90;;;;;;5020726;28;20453;-86
2022/05/10 05:53:06;;;;;;;15.73;13.57;;;16.80;99.90;;;;;;5025668;28;20449;-87
2022/05/10 05:55:35;;;;;;;14.13;12.63;;;16.90;99.90;;;;;;5025926;28;20455;-85
2022/05/10 05:58:02;;;;;;;14.10;12.60;;;17.10;99.90;;;;;;5022330;28;20534;-87
2022/05/10 06:00:30;;;;;;;16.53;12.70;;;17.20;99.90;;;;;;5016556;28;20477;-87
2022/05/10 06:03:00;;;;;;;14.87;13.27;;;17.30;99.90;;;;;;5017486;28;20918;-87
2022/05/10 06:05:27;;;;;;;14.40;12.90;;;17.40;99.90;;;;;;5019579;28;20477;-87
2022/05/10 06:07:54;;;;;;;16.93;14.03;;;17.50;99.90;;;;;;5016879;28;20457;-86
2022/05/10 06:10:21;;;;;;;15.87;14.10;;;17.50;99.90;;;;;;5017142;28;20458;-87
2022/05/10 06:12:53;;;;;;;17.80;12.87;;;17.60;99.90;;;;;;5016375;28;20593;-87
2022/05/10 06:15:23;;;;;;;19.40;14.30;;;17.70;99.90;;;;;;5017668;28;20433;-87
2022/05/10 06:17:58;;;;;;;13.97;12.50;;;17.80;99.90;;;;;;5019440;28;20421;-87
2022/05/10 06:20:26;;;;;;;16.53;13.10;;;17.90;99.90;;;;;;5020786;28;20430;-87
2022/05/10 06:22:53;;;;;;;14.13;12.73;;;17.90;99.90;;;;;;5019364;28;20450;-87
2022/05/10 06:25:23;;;;;;;18.40;13.37;;;18.00;99.90;;;;;;5018623;28;20453;-87
2022/05/10 06:27:56;;;;;;;14.93;13.43;;;18.10;99.90;;;;;;5018758;28;20482;-88
2022/05/10 06:30:43;;;;;;;13.13;11.83;;;18.20;99.90;;;;;;5020701;28;20454;-90
2022/05/10 06:33:19;;;;;;;16.10;12.80;;;18.30;99.90;;;;;;5022080;28;20482;-87
2022/05/10 06:35:55;;;;;;;15.13;13.53;;;18.40;99.90;;;;;;5023456;28;20460;-87
2022/05/10 06:38:27;;;;;;;17.20;12.50;;;18.50;99.90;;;;;;5025623;28;20442;-85
2022/05/10 06:40:54;;;;;;;13.57;12.27;;;18.70;99.90;;;;;;5030283;28;20856;-86
2022/05/10 06:43:23;;;;;;;17.23;14.30;;;18.80;99.90;;;;;;5022167;28;20474;-87
2022/05/10 06:45:50;;;;;;;13.97;12.43;;;18.90;99.90;;;;;;5036183;28;20447;-83
2022/05/10 06:48:18;;;;;;;14.40;12.90;;;19.10;99.90;;;;;;5035989;28;20474;-85
2022/05/10 06:50:46;;;;;;;17.13;11.53;;;19.10;99.90;;;;;;5036413;28;20442;-86
2022/05/10 06:53:13;;;;;;;13.93;11.83;;;19.10;99.90;;;;;;5032286;28;20485;-88
2022/05/10 06:55:40;;;;;;;14.10;11.47;;;19.20;99.90;;;;;;5021837;28;20453;-87
2022/05/10 06:58:11;;;;;;;13.10;11.70;;;19.30;99.90;;;;;;5026743;28;20520;-87
2022/05/10 07:00:41;;;;;;;14.70;11.70;;;19.40;99.90;;;;;;5035431;28;20461;-87
2022/05/10 07:03:10;;;;;;;13.10;11.20;;;19.60;99.90;;;;;;5023276;28;20483;-88
2022/05/10 07:05:38;;;;;;;13.77;10.53;;;19.70;99.90;;;;;;5016829;28;20457;-88
2022/05/10 07:08:09;;;;;;;11.90;10.70;;;19.80;99.90;;;;;;5019559;28;20605;-88
2022/05/10 07:10:36;;;;;;;12.50;10.50;;;19.90;99.90;;;;;;5019662;28;20766;-88
2022/05/10 07:13:03;;;;;;;13.10;11.23;;;19.90;99.90;;;;;;5018346;28;20899;-88
2022/05/10 07:15:31;;;;;;;13.63;10.93;;;20.10;99.90;;;;;;5023453;28;20529;-87
2022/05/10 07:18:01;;;;;;;15.03;11.30;;;20.20;99.90;;;;;;5020109;28;20439;-88
2022/05/10 07:20:28;;;;;;;11.60;9.70;;;20.30;99.90;;;;;;5021142;28;20455;-87
2022/05/10 07:22:57;;;;;;;14.00;10.90;;;20.30;99.90;;;;;;5019769;28;20458;-88
2022/05/10 07:25:25;;;;;;;12.23;10.70;;;20.40;99.90;;;;;;5019225;28;20973;-87
2022/05/10 07:27:55;;;;;;;11.53;9.90;;;20.40;99.90;;;;;;5018776;28;20465;-87
2022/05/10 07:30:25;;;;;;;11.70;9.40;;;20.40;99.90;;;;;;5019333;28;20501;-87
2022/05/10 07:32:55;;;;;;;11.00;9.93;;;20.50;99.90;;;;;;5019334;28;20470;-86
2022/05/10 07:38:07;;;;;;;13.00;10.63;;;20.60;99.90;;;;;;5020793;28;20489;-87
2022/05/10 07:40:34;;;;;;;10.50;9.50;;;20.70;99.90;;;;;;5020613;28;20450;-87
2022/05/10 07:43:01;;;;;;;10.97;9.63;;;20.70;99.90;;;;;;5022444;28;20985;-87
2022/05/10 07:45:28;;;;;;;12.57;10.50;;;20.80;99.90;;;;;;5028336;28;20446;-87
2022/05/10 07:47:56;;;;;;;13.53;9.40;;;21.00;99.90;;;;;;5029961;28;20518;-87
2022/05/10 07:50:32;;;;;;;11.73;9.33;;;21.00;99.90;;;;;;5032175;28;20443;-87
2022/05/10 07:53:06;;;;;;;10.03;8.60;;;21.00;99.90;;;;;;5024753;28;20470;-88
2022/05/10 07:55:33;;;;;;;11.33;10.13;;;21.20;99.90;;;;;;5029292;28;20454;-86
2022/05/10 07:58:00;;;;;;;10.70;9.60;;;21.40;99.90;;;;;;5037796;28;20462;-86
2022/05/10 08:00:27;;;;;;;9.87;8.70;;;21.40;99.90;;;;;;5038797;28;20502;-87
2022/05/10 08:02:54;;;;;;;12.00;9.80;;;21.50;99.90;;;;;;5034196;28;20486;-86
2022/05/10 08:05:25;;;;;;;11.67;9.80;;;21.60;99.90;;;;;;5029846;28;20561;-87
2022/05/10 08:07:53;;;;;;;11.20;9.60;;;21.60;99.90;;;;;;5020241;28;20435;-86
2022/05/10 08:10:20;;;;;;;12.47;9.20;;;21.70;99.90;;;;;;5021819;28;20481;-87
2022/05/10 08:12:48;;;;;;;12.37;9.20;;;21.80;99.90;;;;;;5023277;28;20478;-88
2022/05/10 08:15:22;;;;;;;10.90;9.77;;;21.80;99.90;;;;;;5032465;28;20443;-86
2022/05/10 08:17:52;;;;;;;10.10;9.00;;;22.00;99.90;;;;;;5038639;28;20418;-86
2022/05/10 08:20:19;;;;;;;9.90;8.60;;;22.00;99.80;;;;;;5038107;28;20465;-85
2022/05/10 08:22:51;;;;;;;11.40;9.60;;;22.00;99.40;;;;;;5032282;28;20562;-87
2022/05/10 08:25:18;;;;;;;9.90;8.90;;;22.00;98.90;;;;;;5035698;28;20488;-86
2022/05/10 08:27:49;;;;;;;11.00;9.00;;;22.10;98.90;;;;;;5037930;28;20445;-85
2022/05/10 08:30:17;;;;;;;10.67;9.57;;;22.10;99.00;;;;;;5024612;28;20532;-87
2022/05/10 08:32:44;;;;;;;9.60;8.70;;;22.10;99.10;;;;;;5027407;28;20493;-88
2022/05/10 08:35:17;;;;;;;13.57;9.70;;;22.20;98.80;;;;;;5021597;28;20485;-86
2022/05/10 08:37:44;;;;;;;10.93;9.73;;;22.20;98.70;;;;;;5028277;28;20518;-87
2022/05/10 08:40:22;;;;;;;10.33;9.33;;;22.20;98.70;;;;;;5027405;28;20473;-87
2022/05/10 08:42:53;;;;;;;9.53;8.33;;;22.30;98.90;;;;;;5027367;28;20482;-87
2022/05/10 08:45:20;;;;;;;10.17;9.07;;;22.40;98.30;;;;;;5025142;28;20462;-88
2022/05/10 08:47:49;;;;;;;10.27;9.17;;;22.40;98.50;;;;;;5027084;28;20510;-87
2022/05/10 08:50:17;;;;;;;10.00;8.40;;;22.40;98.30;;;;;;5030509;28;20504;-87
2022/05/10 08:52:52;;;;;;;12.30;8.70;;;22.40;98.00;;;;;;5028086;28;20466;-87
2022/05/10 08:55:31;;;;;;;9.87;8.87;;;22.50;97.60;;;;;;5023399;28;20438;-87
2022/05/10 08:58:07;;;;;;;9.63;8.60;;;22.60;97.30;;;;;;5023054;28;20419;-88
2022/05/10 09:00:39;;;;;;;9.83;8.83;;;22.80;97.80;;;;;;5021993;28;20438;-87
2022/05/10 09:03:29;;;;;;;9.73;8.73;;;22.90;97.20;;;;;;5017868;28;20477;-87
2022/05/10 09:06:00;;;;;;;13.00;10.40;;;23.10;96.90;;;;;;5018632;28;20461;-86
2022/05/10 09:08:37;;;;;;;10.60;9.50;;;23.20;96.90;;;;;;5019441;28;20923;-87
2022/05/10 09:11:14;;;;;;;10.37;8.43;;;23.10;96.10;;;;;;5018923;28;20434;-87
2022/05/10 09:13:43;;;;;;;9.57;8.60;;;23.10;95.70;;;;;;5019094;28;20485;-86
2022/05/10 09:16:14;;;;;;;13.33;10.43;;;23.30;95.80;;;;;;5061851;22;20442;-87
2022/05/10 09:18:49;;;;;;;11.40;9.33;;;23.30;95.80;;;;;;4997205;28;20459;-88
2022/05/10 09:21:21;;;;;;;9.33;8.33;;;23.50;95.30;;;;;;5006551;28;20940;-87
2022/05/10 09:24:05;;;;;;;8.87;7.93;;;23.60;93.70;;;;;;5010290;28;20426;-87
2022/05/10 09:26:39;;;;;;;8.70;7.80;;;23.70;92.90;;;;;;5003297;28;20498;-87
2022/05/10 09:29:13;;;;;;;8.83;7.93;;;23.70;92.10;;;;;;5000698;28;20479;-87
2022/05/10 09:37:15;;;;;;;10.00;9.00;;;23.60;91.00;;;;;;5000987;28;20960;-87
2022/05/10 09:39:48;;;;;;;8.80;7.73;;;23.70;91.40;;;;;;5009364;28;20494;-87
2022/05/10 09:42:28;;;;;;;9.53;8.63;;;23.80;92.10;;;;;;5001988;28;20436;-87
2022/05/10 09:45:02;;;;;;;8.77;7.87;;;23.90;92.70;;;;;;5006724;28;20420;-85
2022/05/10 09:47:30;;;;;;;9.47;8.57;;;23.90;92.70;;;;;;5006784;28;20530;-88
2022/05/10 09:50:29;;;;;;;9.20;8.20;;;23.90;92.50;;;;;;5009637;28;20547;-87
2022/05/10 09:56:48;;;;;;;9.03;7.00;;;24.10;89.40;;;;;;5004005;28;20522;-89
2022/05/10 09:59:30;;;;;;;9.00;7.87;;;24.00;88.40;;;;;;5011343;28;20484;-89
2022/05/10 10:01:58;;;;;;;8.30;7.37;;;24.10;90.00;;;;;;5004275;28;20415;-88
2022/05/10 10:04:31;;;;;;;9.07;8.17;;;24.30;90.30;;;;;;5010268;28;20443;-86
2022/05/10 10:07:10;;;;;;;10.40;7.80;;;24.50;90.60;;;;;;4999328;28;20474;-87
2022/05/10 10:09:40;;;;;;;9.67;8.50;;;24.60;90.00;;;;;;5001452;28;20988;-87
2022/05/10 10:12:28;;;;;;;10.23;8.10;;;24.50;90.20;;;;;;5002220;28;20470;-87
2022/05/10 10:15:03;;;;;;;9.97;8.33;;;24.60;89.60;;;;;;5004053;28;20471;-87
2022/05/10 10:17:34;;;;;;;8.20;7.30;;;24.50;89.00;;;;;;5005480;28;20518;-86
2022/05/10 10:20:06;;;;;;;9.00;7.30;;;24.50;87.00;;;;;;5007740;28;20442;-88
2022/05/10 10:22:43;;;;;;;7.60;6.83;;;24.60;84.20;;;;;;5001299;28;20514;-87
2022/05/10 10:25:17;;;;;;;8.03;7.23;;;24.70;83.20;;;;;;5000992;28;20513;-88
2022/05/10 10:27:50;;;;;;;8.20;7.40;;;24.80;83.30;;;;;;4999408;28;20486;-87
2022/05/10 10:30:25;;;;;;;10.37;7.17;;;24.80;83.10;;;;;;4998813;28;20511;-87
2022/05/10 10:32:58;;;;;;;10.57;7.70;;;24.90;82.60;;;;;;5006837;28;20478;-88
2022/05/10 10:35:35;;;;;;;7.83;7.03;;;24.90;81.70;;;;;;4998494;28;20443;-88
2022/05/10 10:38:12;;;;;;;10.03;7.00;;;25.20;80.50;;;;;;5001613;28;21014;-88
2022/05/10 10:40:52;;;;;;;9.73;6.40;;;25.30;79.10;;;;;;4997787;28;20463;-88
2022/05/10 10:43:27;;;;;;;8.20;6.67;;;25.20;78.50;;;;;;5000248;28;20427;-87
2022/05/10 10:46:06;;;;;;;7.90;6.53;;;25.20;77.00;;;;;;5000712;28;20466;-88
2022/05/10 10:48:47;;;;;;;10.07;6.30;;;25.40;76.40;;;;;;5002415;28;20415;-87
2022/05/10 10:51:17;;;;;;;7.40;6.07;;;25.50;76.50;;;;;;5001049;28;20439;-88
2022/05/10 10:53:47;;;;;;;7.83;6.70;;;25.60;75.30;;;;;;5002261;28;21007;-87
2022/05/10 10:56:43;;;;;;;8.23;7.40;;;25.70;74.70;;;;;;5001323;28;20440;-88
2022/05/10 10:59:33;;;;;;;8.00;7.20;;;25.70;74.70;;;;;;5001232;28;20435;-88
2022/05/10 11:02:18;;;;;;;7.73;6.73;;;25.50;73.70;;;;;;5008136;28;20400;-87
2022/05/10 11:05:11;;;;;;;8.10;5.70;;;25.30;73.30;;;;;;5005353;28;20419;-88
2022/05/10 11:07:51;;;;;;;8.10;6.33;;;24.90;74.40;;;;;;5003630;28;20512;-87
2022/05/10 11:10:27;;;;;;;9.90;7.07;;;24.70;75.60;;;;;;5005210;28;20482;-88
2022/05/10 11:13:09;;;;;;;11.10;6.10;;;24.80;76.20;;;;;;5008739;28;20443;-87
2022/05/10 11:15:48;;;;;;;6.87;6.17;;;25.00;75.70;;;;;;5004182;28;21024;-87
2022/05/10 11:18:40;;;;;;;7.10;6.40;;;25.10;73.80;;;;;;5010791;28;20478;-88
2022/05/10 11:21:20;;;;;;;7.70;6.90;;;25.10;73.60;;;;;;5002514;28;20901;-86
2022/05/10 11:23:57;;;;;;;6.80;6.10;;;25.20;74.30;;;;;;5001664;28;20877;-88
2022/05/10 11:26:37;;;;;;;8.50;6.23;;;25.30;71.20;;;;;;5002478;28;20474;-87
2022/05/10 11:29:31;;;;;;;9.13;5.97;;;25.40;70.80;;;;;;5003659;28;20895;-88
2022/05/10 11:32:13;;;;;;;6.90;6.20;;;25.50;71.20;;;;;;4998995;28;20463;-88
2022/05/10 11:35:16;;;;;;;7.30;5.73;;;25.50;71.10;;;;;;5003708;28;20454;-89
2022/05/10 11:37:50;;;;;;;8.93;6.33;;;25.70;69.80;;;;;;4987724;28;20498;-89
2022/05/10 11:40:45;;;;;;;6.03;5.13;;;25.80;68.50;;;;;;5010960;28;20436;-86
2022/05/10 11:43:38;;;;;;;7.37;6.57;;;25.80;66.70;;;;;;5006062;28;20466;-87
2022/05/10 11:46:33;;;;;;;7.80;5.47;;;25.90;66.00;;;;;;5011256;28;20475;-88
2022/05/10 11:49:13;;;;;;;7.70;5.73;;;25.80;66.30;;;;;;5006650;28;20451;-89
2022/05/10 11:51:57;;;;;;;7.77;5.60;;;25.50;66.40;;;;;;5009347;28;20503;-88
2022/05/10 11:54:57;;;;;;;7.67;6.87;;;25.30;68.20;;;;;;5011022;28;20439;-87
2022/05/10 11:57:35;;;;;;;7.80;6.07;;;25.30;71.20;;;;;;5004002;28;20481;-88
2022/05/10 12:00:54;;;;;;;9.23;7.70;;;25.40;71.40;;;;;;5002810;28;20423;-88
2022/05/10 12:03:52;;;;;;;7.70;6.07;;;25.70;71.30;;;;;;4981864;28;20456;-87
2022/05/10 12:06:46;;;;;;;8.77;5.63;;;25.90;67.00;;;;;;4984708;28;20479;-88
2022/05/10 12:09:17;;;;;;;11.37;6.87;;;26.10;66.40;;;;;;5006870;28;20452;-88
2022/05/10 12:11:48;;;;;;;6.60;5.63;;;26.20;66.00;;;;;;5004989;28;20427;-87
2022/05/10 12:24:13;;;;;;;7.90;5.70;;;25.40;66.80;;;;;;4965916;28;20439;-88
2022/05/10 12:26:51;;;;;;;6.00;5.33;;;25.30;67.00;;;;;;5001651;28;20545;-89
2022/05/10 12:29:38;;;;;;;6.77;5.63;;;25.20;67.20;;;;;;5003631;28;20515;-88
2022/05/10 12:32:06;;;;;;;6.87;6.17;;;25.10;67.70;;;;;;5011000;28;20444;-88
2022/05/10 12:34:57;;;;;;;6.27;5.50;;;25.20;67.40;;;;;;5013997;28;20474;-88
2022/05/10 12:38:08;;;;;;;7.53;6.13;;;25.30;67.40;;;;;;5012522;28;20470;-88
2022/05/10 12:41:10;;;;;;;6.73;5.80;;;25.50;66.90;;;;;;5001667;28;20454;-88
2022/05/10 12:44:14;;;;;;;7.10;5.70;;;25.60;65.40;;;;;;5001458;28;20443;-87
2022/05/10 12:47:38;;;;;;;8.20;6.50;;;25.90;65.40;;;;;;5000627;28;20486;-89
2022/05/10 12:50:20;;;;;;;8.07;5.73;;;26.10;63.50;;;;;;5003726;28;20522;-88
2022/05/10 12:52:48;;;;;;;7.33;5.63;;;26.30;63.10;;;;;;5008562;28;20523;-87
2022/05/10 12:55:21;;;;;;;6.60;5.73;;;26.40;61.80;;;;;;5016959;28;20451;-87
2022/05/10 12:58:01;;;;;;;7.03;5.67;;;26.40;62.20;;;;;;5011077;28;20486;-88
2022/05/10 13:00:36;;;;;;;6.60;5.80;;;26.40;61.60;;;;;;5008639;28;20500;-88
2022/05/10 13:03:12;;;;;;;6.97;6.17;;;26.40;61.50;;;;;;5004911;28;20450;-89
2022/05/10 13:05:58;;;;;;;7.60;5.97;;;26.40;61.70;;;;;;5004605;28;20443;-89
2022/05/10 13:08:53;;;;;;;8.40;6.10;;;26.60;61.20;;;;;;5002531;28;20479;-88
2022/05/10 13:11:26;;;;;;;8.33;5.53;;;26.80;60.70;;;;;;4999340;28;20460;-88
2022/05/10 13:13:58;;;;;;;7.40;5.27;;;26.90;60.30;;;;;;5001966;28;20443;-88
2022/05/10 13:16:40;;;;;;;9.30;6.17;;;26.60;61.10;;;;;;5001601;28;20506;-87
2022/05/10 13:19:12;;;;;;;12.93;6.70;;;26.50;62.10;;;;;;5002093;28;20459;-87
2022/05/10 13:21:43;;;;;;;7.33;6.27;;;26.50;62.30;;;;;;5004506;28;20450;-88
2022/05/10 13:24:16;;;;;;;8.27;5.93;;;26.50;61.20;;;;;;5002616;28;20647;-88